Time;durP1;ratioP1;P1;durP2;ratioP2;P2;SDS_P1;SDS_P2;PMS_P1;PMS_P2;Temp;Humidity;BMP_temperature;BMP_pressure;BME280_temperature;BME280_humidity;BME280_pressure;Samples;Min_cycle;Max_cycle;Signal;HPM_P1;HPM_P2
2021/09/22 00:01:49;;;;;;;12.48;8.85;;;13.80;76.40;;;;;;5074311;28;20075;-79
2021/09/22 00:04:15;;;;;;;11.50;8.95;;;13.70;76.40;;;;;;5074330;28;20025;-79
2021/09/22 00:06:41;;;;;;;12.90;8.85;;;13.70;76.50;;;;;;5074059;28;20023;-79
2021/09/22 00:09:06;;;;;;;10.07;8.32;;;13.70;76.50;;;;;;5075487;28;20024;-80
2021/09/22 00:11:32;;;;;;;10.23;7.97;;;13.60;77.10;;;;;;5074069;28;20602;-79
2021/09/22 00:13:57;;;;;;;11.52;8.40;;;13.60;76.60;;;;;;5074091;28;20115;-79
2021/09/22 00:16:23;;;;;;;10.50;7.43;;;13.60;76.60;;;;;;5074072;28;20031;-79
2021/09/22 00:18:49;;;;;;;13.45;8.70;;;13.50;76.60;;;;;;5073925;28;20066;-80
2021/09/22 00:21:14;;;;;;;11.57;8.50;;;13.50;76.70;;;;;;5074000;28;20107;-79
2021/09/22 00:23:40;;;;;;;12.05;8.50;;;13.50;76.80;;;;;;5073809;28;20024;-80
2021/09/22 00:26:06;;;;;;;10.80;8.35;;;13.40;76.80;;;;;;5073828;28;20078;-79
2021/09/22 00:28:31;;;;;;;10.80;8.65;;;13.40;76.90;;;;;;5073732;28;20033;-80
2021/09/22 00:30:57;;;;;;;12.55;9.07;;;13.40;76.90;;;;;;5073731;28;20460;-80
2021/09/22 00:33:23;;;;;;;11.57;8.98;;;13.30;77.00;;;;;;5075092;28;20314;-79
2021/09/22 00:35:49;;;;;;;14.20;9.38;;;13.30;77.10;;;;;;5073718;28;20012;-79
2021/09/22 00:38:14;;;;;;;11.82;9.13;;;13.20;77.20;;;;;;5074961;28;20054;-79
2021/09/22 00:40:40;;;;;;;15.52;9.55;;;13.20;77.30;;;;;;5074857;28;20028;-78
2021/09/22 00:43:07;;;;;;;14.30;9.73;;;13.20;77.40;;;;;;5074850;28;20426;-78
2021/09/22 00:45:33;;;;;;;12.02;9.25;;;13.10;77.30;;;;;;5073526;28;20052;-79
2021/09/22 00:47:58;;;;;;;13.25;9.38;;;13.20;77.50;;;;;;5074546;28;20021;-78
2021/09/22 00:50:24;;;;;;;11.38;9.50;;;13.10;77.60;;;;;;5074691;28;20067;-79
2021/09/22 00:52:51;;;;;;;13.70;9.65;;;13.10;77.70;;;;;;5073325;28;20023;-79
2021/09/22 00:55:16;;;;;;;13.85;10.07;;;13.20;77.80;;;;;;5074962;28;20020;-79
2021/09/22 00:57:50;;;;;;;14.25;10.35;;;13.10;77.80;;;;;;5074615;28;20082;-79
2021/09/22 01:00:20;;;;;;;12.57;9.82;;;13.10;77.90;;;;;;5073517;28;20025;-79
2021/09/22 01:02:48;;;;;;;13.13;10.18;;;13.20;78.00;;;;;;5073128;28;20056;-79
2021/09/22 01:05:18;;;;;;;14.77;10.48;;;13.20;78.10;;;;;;5073620;28;20028;-79
2021/09/22 01:07:44;;;;;;;14.13;10.20;;;13.20;78.20;;;;;;5072927;28;20025;-79
2021/09/22 01:10:11;;;;;;;11.95;9.90;;;13.20;78.30;;;;;;5074366;28;20028;-79
2021/09/22 01:12:37;;;;;;;16.42;10.77;;;13.20;78.30;;;;;;5072811;28;20111;-80
2021/09/22 01:15:03;;;;;;;14.00;10.15;;;13.20;78.40;;;;;;5074197;28;20028;-80
2021/09/22 01:17:31;;;;;;;13.15;10.40;;;13.20;78.50;;;;;;5072713;28;20070;-79
2021/09/22 01:20:07;;;;;;;14.98;10.70;;;13.20;78.50;;;;;;5072804;28;20063;-80
2021/09/22 01:22:32;;;;;;;14.65;10.85;;;13.20;78.60;;;;;;5072882;28;20021;-79
2021/09/22 01:24:58;;;;;;;13.98;10.55;;;13.20;78.50;;;;;;5072337;28;20048;-79
2021/09/22 01:27:25;;;;;;;13.45;10.82;;;13.10;78.40;;;;;;5073864;28;20119;-79
2021/09/22 01:29:51;;;;;;;15.95;12.07;;;13.10;78.50;;;;;;5072638;28;20365;-78
2021/09/22 01:32:17;;;;;;;15.88;11.27;;;13.10;78.60;;;;;;5072529;28;20013;-79
2021/09/22 01:34:43;;;;;;;14.65;10.88;;;13.10;78.70;;;;;;5072482;28;20077;-79
2021/09/22 01:37:09;;;;;;;14.48;11.30;;;13.00;78.70;;;;;;5072331;28;20021;-79
2021/09/22 01:40:12;;;;;;;14.38;11.38;;;13.00;78.70;;;;;;5072557;28;20028;-79
2021/09/22 01:42:37;;;;;;;16.25;11.60;;;13.10;78.90;;;;;;5072313;28;20024;-79
2021/09/22 01:45:08;;;;;;;14.48;11.32;;;13.10;78.80;;;;;;5073530;28;20040;-78
2021/09/22 01:47:34;;;;;;;17.10;12.35;;;13.10;79.00;;;;;;5073378;28;20021;-78
2021/09/22 01:50:02;;;;;;;15.15;12.30;;;13.10;79.00;;;;;;5073573;28;20085;-78
2021/09/22 01:52:30;;;;;;;17.23;12.82;;;13.10;79.10;;;;;;5072398;28;20023;-79
2021/09/22 01:54:56;;;;;;;17.23;12.77;;;13.10;79.20;;;;;;5072114;28;20468;-78
2021/09/22 01:57:22;;;;;;;20.70;12.80;;;13.00;79.20;;;;;;5071691;28;20071;-79
2021/09/22 01:59:47;;;;;;;17.25;13.15;;;13.00;79.30;;;;;;5072023;28;20032;-79
2021/09/22 02:02:13;;;;;;;18.80;13.55;;;13.00;79.50;;;;;;5071937;28;20028;-79
2021/09/22 02:04:38;;;;;;;19.50;13.38;;;13.00;79.60;;;;;;5071976;28;20040;-79
2021/09/22 02:07:04;;;;;;;18.88;13.43;;;13.00;79.70;;;;;;5071884;28;20059;-79
2021/09/22 02:09:29;;;;;;;18.58;14.25;;;13.00;79.70;;;;;;5071701;28;20060;-79
2021/09/22 02:11:55;;;;;;;19.30;13.80;;;13.00;79.80;;;;;;5073192;28;20082;-79
2021/09/22 02:14:24;;;;;;;19.35;14.60;;;13.00;79.90;;;;;;5071774;28;20119;-79
2021/09/22 02:16:49;;;;;;;19.77;14.25;;;13.00;80.10;;;;;;5071737;28;20025;-79
2021/09/22 02:19:15;;;;;;;19.30;14.18;;;13.00;80.20;;;;;;5071697;28;20042;-79
2021/09/22 02:21:41;;;;;;;19.20;14.18;;;13.00;80.30;;;;;;5071716;28;20469;-79
2021/09/22 02:24:06;;;;;;;18.75;14.27;;;13.00;80.30;;;;;;5071596;28;20067;-80
2021/09/22 02:26:32;;;;;;;21.20;15.23;;;12.90;80.40;;;;;;5071623;28;20029;-79
2021/09/22 02:28:58;;;;;;;21.95;16.02;;;12.90;80.40;;;;;;5072775;28;20027;-79
2021/09/22 02:31:23;;;;;;;22.90;16.48;;;12.90;80.60;;;;;;5072878;28;20391;-79
2021/09/22 02:33:49;;;;;;;26.27;16.27;;;12.90;80.70;;;;;;5071520;28;20027;-79
2021/09/22 02:36:15;;;;;;;22.48;16.45;;;12.90;80.80;;;;;;5071679;28;20023;-79
2021/09/22 02:38:40;;;;;;;23.48;16.40;;;12.80;80.80;;;;;;5072761;28;20033;-79
2021/09/22 02:41:06;;;;;;;20.77;16.13;;;12.90;81.00;;;;;;5071544;28;20426;-80
2021/09/22 02:43:32;;;;;;;21.13;15.95;;;12.80;81.00;;;;;;5071343;28;20071;-80
2021/09/22 02:45:57;;;;;;;21.80;16.33;;;12.80;81.10;;;;;;5071324;28;20473;-79
2021/09/22 02:48:23;;;;;;;22.88;16.50;;;12.90;81.20;;;;;;5071213;28;20024;-80
2021/09/22 02:50:50;;;;;;;22.45;16.63;;;12.80;81.30;;;;;;5072614;28;20021;-80
2021/09/22 02:53:16;;;;;;;21.90;15.88;;;12.80;81.30;;;;;;5071305;28;20425;-80
2021/09/22 02:55:42;;;;;;;22.33;16.52;;;12.80;81.40;;;;;;5071240;28;20028;-80
2021/09/22 02:58:08;;;;;;;23.38;15.98;;;12.80;81.40;;;;;;5071125;28;20020;-79
2021/09/22 03:00:33;;;;;;;22.33;16.30;;;12.80;81.50;;;;;;5071119;28;20067;-79
2021/09/22 03:02:59;;;;;;;22.02;16.13;;;12.80;81.60;;;;;;5071129;28;20047;-79
2021/09/22 03:05:25;;;;;;;21.40;15.85;;;12.80;81.60;;;;;;5071111;28;20048;-79
2021/09/22 03:07:51;;;;;;;21.38;16.70;;;12.80;81.70;;;;;;5071050;28;20027;-79
2021/09/22 03:10:19;;;;;;;21.20;16.02;;;12.80;81.70;;;;;;5075176;28;20388;-79
2021/09/22 03:12:45;;;;;;;22.92;15.63;;;12.80;81.60;;;;;;5076705;28;20024;-79
2021/09/22 03:15:11;;;;;;;21.27;15.50;;;12.80;81.70;;;;;;5076510;28;20468;-79
2021/09/22 03:17:41;;;;;;;20.77;15.80;;;12.70;81.70;;;;;;5075227;28;20027;-79
2021/09/22 03:20:08;;;;;;;23.92;16.23;;;12.70;81.80;;;;;;5075185;28;20024;-79
2021/09/22 03:22:33;;;;;;;20.67;16.08;;;12.70;81.90;;;;;;5074991;28;20024;-79
2021/09/22 03:24:59;;;;;;;23.90;16.50;;;12.70;81.90;;;;;;5074995;28;20051;-79
2021/09/22 03:27:24;;;;;;;22.20;16.38;;;12.70;82.00;;;;;;5076138;28;20036;-78
2021/09/22 03:29:50;;;;;;;25.52;17.05;;;12.70;82.10;;;;;;5074949;28;20052;-79
2021/09/22 03:32:16;;;;;;;21.27;15.93;;;12.70;82.10;;;;;;5074910;28;20070;-79
2021/09/22 03:34:42;;;;;;;21.85;16.30;;;12.70;82.20;;;;;;5074820;28;20020;-78
2021/09/22 03:37:07;;;;;;;24.15;15.93;;;12.70;82.10;;;;;;5075146;28;20025;-79
2021/09/22 03:39:33;;;;;;;23.10;16.33;;;12.70;82.10;;;;;;5076296;28;20028;-79
2021/09/22 03:41:59;;;;;;;22.40;15.90;;;12.70;82.10;;;;;;5074765;28;20048;-79
2021/09/22 03:44:25;;;;;;;24.23;16.70;;;12.70;82.20;;;;;;5075954;28;20044;-79
2021/09/22 03:46:52;;;;;;;21.90;16.10;;;12.70;82.20;;;;;;5074704;28;20025;-79
2021/09/22 03:49:18;;;;;;;21.77;16.73;;;12.70;82.20;;;;;;5074485;28;20115;-79
2021/09/22 03:51:43;;;;;;;23.17;16.40;;;12.70;82.20;;;;;;5074665;28;20055;-78
2021/09/22 03:54:09;;;;;;;22.30;15.73;;;12.70;82.20;;;;;;5074874;28;20025;-79
2021/09/22 03:56:34;;;;;;;26.02;16.88;;;12.60;82.10;;;;;;5074672;28;20016;-79
2021/09/22 03:59:01;;;;;;;23.40;16.65;;;12.60;82.20;;;;;;5074530;28;20038;-79
2021/09/22 04:01:29;;;;;;;23.80;16.33;;;12.60;82.10;;;;;;5076020;28;20036;-79
2021/09/22 04:03:55;;;;;;;23.77;16.48;;;12.60;82.20;;;;;;5074455;28;20115;-78
2021/09/22 04:06:21;;;;;;;24.38;17.20;;;12.60;82.10;;;;;;5075486;28;20112;-79
2021/09/22 04:08:47;;;;;;;24.92;17.40;;;12.60;82.20;;;;;;5075699;28;20024;-79
2021/09/22 04:11:13;;;;;;;24.83;17.70;;;12.60;82.30;;;;;;5074837;28;20020;-79
2021/09/22 04:13:38;;;;;;;25.77;17.77;;;12.50;82.30;;;;;;5074857;28;20016;-79
2021/09/22 04:16:04;;;;;;;30.42;18.35;;;12.60;82.40;;;;;;5074803;28;20029;-79
2021/09/22 04:18:30;;;;;;;24.40;17.95;;;12.50;82.40;;;;;;5074595;28;20031;-79
2021/09/22 04:20:55;;;;;;;25.98;16.70;;;12.60;82.50;;;;;;5075876;28;20524;-79
2021/09/22 04:23:21;;;;;;;26.48;18.00;;;12.50;82.50;;;;;;5076076;28;20034;-79
2021/09/22 04:25:46;;;;;;;24.88;17.35;;;12.50;82.50;;;;;;5074360;28;20492;-78
2021/09/22 04:28:12;;;;;;;25.40;18.33;;;12.50;82.50;;;;;;5074473;28;20126;-79
2021/09/22 04:30:38;;;;;;;26.33;17.90;;;12.50;82.50;;;;;;5074518;28;20016;-78
2021/09/22 04:33:06;;;;;;;26.58;17.63;;;12.50;82.50;;;;;;5074206;28;20107;-78
2021/09/22 04:35:34;;;;;;;26.83;18.73;;;12.50;82.50;;;;;;5075543;28;20539;-79
2021/09/22 04:38:00;;;;;;;26.60;18.15;;;12.50;82.50;;;;;;5074119;28;20074;-79
2021/09/22 04:40:29;;;;;;;25.17;17.75;;;12.40;82.50;;;;;;5073879;28;20021;-79
2021/09/22 04:42:56;;;;;;;25.70;18.15;;;12.50;82.50;;;;;;5074618;28;20043;-79
2021/09/22 04:45:22;;;;;;;26.70;18.40;;;12.40;82.50;;;;;;5073960;28;20082;-79
2021/09/22 04:47:48;;;;;;;24.30;17.42;;;12.40;82.50;;;;;;5075255;28;20055;-80
2021/09/22 04:50:14;;;;;;;27.73;18.30;;;12.40;82.50;;;;;;5073697;28;20063;-80
2021/09/22 04:52:40;;;;;;;23.90;17.38;;;12.40;82.50;;;;;;5073603;28;20036;-78
2021/09/22 04:55:06;;;;;;;25.40;17.67;;;12.40;82.50;;;;;;5073558;28;20027;-80
2021/09/22 05:00:53;;;;;;;26.30;17.83;;;12.30;82.50;;;;;;5075875;28;20036;-79
2021/09/22 05:03:19;;;;;;;24.58;18.00;;;12.30;82.50;;;;;;5073390;28;20333;-79
2021/09/22 05:05:54;;;;;;;25.23;18.27;;;12.30;82.50;;;;;;5073333;28;20086;-79
2021/09/22 05:08:27;;;;;;;25.33;18.17;;;12.20;82.40;;;;;;5074624;28;20028;-81
2021/09/22 05:10:57;;;;;;;25.40;17.47;;;12.20;82.50;;;;;;5057773;28;20556;-81
2021/09/22 05:13:24;;;;;;;23.83;17.25;;;12.20;82.40;;;;;;5074968;28;20037;-80
2021/09/22 05:15:53;;;;;;;25.77;17.33;;;12.20;82.50;;;;;;5057299;28;20040;-80
2021/09/22 05:21:41;;;;;;;24.52;16.90;;;12.20;82.60;;;;;;5075918;28;20077;-79
2021/09/22 05:24:13;;;;;;;24.38;17.25;;;12.10;82.40;;;;;;5073462;28;20028;-80
2021/09/22 05:26:38;;;;;;;23.65;16.60;;;12.10;82.50;;;;;;5072842;28;20035;-78
2021/09/22 05:29:04;;;;;;;23.10;15.95;;;12.10;82.60;;;;;;5072651;28;20119;-79
2021/09/22 05:31:30;;;;;;;22.45;16.77;;;12.10;82.70;;;;;;5072114;28;20077;-79
2021/09/22 05:33:56;;;;;;;24.08;16.83;;;12.10;82.70;;;;;;5072437;28;20116;-79
2021/09/22 05:36:22;;;;;;;22.85;15.90;;;12.20;82.80;;;;;;5072707;28;20043;-78
2021/09/22 05:38:48;;;;;;;24.63;16.23;;;12.20;82.90;;;;;;5072437;28;20059;-78
2021/09/22 05:41:14;;;;;;;22.33;16.15;;;12.20;82.90;;;;;;5073777;28;20154;-79
2021/09/22 05:43:39;;;;;;;23.15;16.42;;;12.20;82.90;;;;;;5072370;28;20111;-79
2021/09/22 05:46:05;;;;;;;23.35;16.30;;;12.20;82.90;;;;;;5072314;28;20107;-79
2021/09/22 05:48:31;;;;;;;22.77;16.05;;;12.30;83.00;;;;;;5072746;28;20021;-78
2021/09/22 05:50:57;;;;;;;22.27;16.25;;;12.30;83.00;;;;;;5072006;28;20024;-79
2021/09/22 05:53:23;;;;;;;25.40;17.25;;;12.30;83.00;;;;;;5073602;28;20102;-79
2021/09/22 05:55:49;;;;;;;20.30;15.43;;;12.30;83.10;;;;;;5073530;28;20012;-79
2021/09/22 05:58:16;;;;;;;23.80;15.70;;;12.30;83.10;;;;;;5073482;28;20056;-78
2021/09/22 06:00:45;;;;;;;25.40;15.82;;;12.30;83.10;;;;;;5072035;28;20506;-78
2021/09/22 06:03:10;;;;;;;22.95;16.83;;;12.30;83.10;;;;;;5073351;28;20028;-79
2021/09/22 06:05:37;;;;;;;22.92;15.43;;;12.30;83.10;;;;;;5071803;28;20027;-79
2021/09/22 06:08:03;;;;;;;25.67;15.65;;;12.30;83.10;;;;;;5072174;28;20438;-79
2021/09/22 06:10:29;;;;;;;23.02;15.65;;;12.30;83.00;;;;;;5071978;28;20025;-79
2021/09/22 06:12:57;;;;;;;24.05;16.42;;;12.40;83.00;;;;;;5073120;28;20059;-79
2021/09/22 06:15:24;;;;;;;22.85;15.93;;;12.40;82.90;;;;;;5071779;28;20123;-79
2021/09/22 06:17:50;;;;;;;23.13;16.00;;;12.40;82.90;;;;;;5071798;28;20054;-80
2021/09/22 06:20:18;;;;;;;22.65;15.40;;;12.40;82.90;;;;;;5071806;28;20024;-79
2021/09/22 06:22:44;;;;;;;24.50;16.30;;;12.40;82.90;;;;;;5071787;28;20157;-79
2021/09/22 06:25:10;;;;;;;23.27;16.58;;;12.50;82.90;;;;;;5071597;28;20157;-79
2021/09/22 06:27:36;;;;;;;21.00;15.40;;;12.50;82.90;;;;;;5071779;28;20025;-79
2021/09/22 06:30:03;;;;;;;22.20;15.48;;;12.50;82.80;;;;;;5071773;28;20159;-80
2021/09/22 06:32:29;;;;;;;20.40;14.90;;;12.50;82.70;;;;;;5073111;28;20021;-80
2021/09/22 06:34:55;;;;;;;22.10;15.75;;;12.60;82.70;;;;;;5071727;28;20035;-80
2021/09/22 06:37:20;;;;;;;27.30;16.90;;;12.60;82.70;;;;;;5071683;28;20052;-79
2021/09/22 06:39:46;;;;;;;22.83;16.38;;;12.70;82.70;;;;;;5071973;28;20031;-79
2021/09/22 06:42:12;;;;;;;23.17;16.63;;;12.70;82.60;;;;;;5073246;28;20452;-79
2021/09/22 06:44:37;;;;;;;23.15;17.00;;;12.70;82.60;;;;;;5071546;28;20115;-79
2021/09/22 06:47:04;;;;;;;24.45;17.67;;;12.70;82.60;;;;;;5071625;28;20025;-79
2021/09/22 06:49:30;;;;;;;24.75;17.52;;;12.80;82.70;;;;;;5071786;28;20023;-80
2021/09/22 06:51:55;;;;;;;26.23;19.17;;;12.80;82.60;;;;;;5071741;28;20020;-79
2021/09/22 06:54:21;;;;;;;26.73;17.58;;;12.90;82.60;;;;;;5073020;28;20048;-80
2021/09/22 06:56:47;;;;;;;25.10;17.13;;;12.90;82.50;;;;;;5071688;28;20049;-80
2021/09/22 06:59:15;;;;;;;22.65;16.48;;;13.00;82.50;;;;;;5071663;28;20482;-78
2021/09/22 07:01:41;;;;;;;24.77;17.27;;;13.00;82.40;;;;;;5071803;28;20376;-81
2021/09/22 07:04:07;;;;;;;23.40;17.33;;;13.10;82.30;;;;;;5071416;28;20027;-80
2021/09/22 07:06:33;;;;;;;24.40;17.25;;;13.10;82.30;;;;;;5071301;28;20040;-81
2021/09/22 07:08:59;;;;;;;27.40;18.45;;;13.10;82.30;;;;;;5071314;28;20024;-81
2021/09/22 07:11:24;;;;;;;24.10;17.33;;;13.20;82.30;;;;;;5071371;28;20028;-80
2021/09/22 07:13:50;;;;;;;25.00;16.88;;;13.20;82.30;;;;;;5072688;28;20051;-79
2021/09/22 07:16:16;;;;;;;23.75;16.80;;;13.20;82.20;;;;;;5071158;28;20476;-79
2021/09/22 07:18:44;;;;;;;24.42;16.35;;;13.30;82.20;;;;;;5072523;28;20012;-79
2021/09/22 07:21:10;;;;;;;24.13;17.23;;;13.30;82.20;;;;;;5072641;28;20021;-79
2021/09/22 07:23:37;;;;;;;23.25;16.65;;;13.30;82.10;;;;;;5071096;28;20024;-79
2021/09/22 07:26:03;;;;;;;25.20;17.17;;;13.40;82.10;;;;;;5071118;28;20127;-79
2021/09/22 07:28:33;;;;;;;25.77;17.73;;;13.40;82.10;;;;;;5071098;28;20074;-79
2021/09/22 07:30:59;;;;;;;20.67;16.23;;;13.40;82.00;;;;;;5071039;28;20380;-81
2021/09/22 07:33:25;;;;;;;23.55;17.58;;;13.50;82.00;;;;;;5070854;28;20057;-80
2021/09/22 07:35:51;;;;;;;23.63;16.60;;;13.50;81.90;;;;;;5068173;28;20451;-79
2021/09/22 07:38:17;;;;;;;21.90;16.83;;;13.60;81.80;;;;;;5071016;28;20380;-78
2021/09/22 07:40:44;;;;;;;22.38;16.67;;;13.60;81.70;;;;;;5070793;28;20028;-79
2021/09/22 07:43:10;;;;;;;21.63;16.65;;;13.70;81.70;;;;;;5070975;28;20024;-78
2021/09/22 07:45:35;;;;;;;21.23;16.00;;;13.70;81.60;;;;;;5070880;28;20376;-78
2021/09/22 07:48:01;;;;;;;23.98;17.48;;;13.70;81.50;;;;;;5072070;28;20473;-77
2021/09/22 07:50:27;;;;;;;22.08;16.75;;;13.80;81.50;;;;;;5070956;28;20048;-78
2021/09/22 07:52:53;;;;;;;23.08;17.25;;;13.80;81.40;;;;;;5072272;28;20021;-78
2021/09/22 07:55:18;;;;;;;22.17;16.50;;;13.90;81.40;;;;;;5072111;28;20139;-79
2021/09/22 07:57:44;;;;;;;23.13;17.20;;;14.00;81.30;;;;;;5074593;28;20024;-78
2021/09/22 08:00:11;;;;;;;21.90;15.63;;;14.00;81.30;;;;;;5075791;28;20453;-80
2021/09/22 08:02:37;;;;;;;21.42;15.85;;;14.00;81.20;;;;;;5074481;28;20017;-79
2021/09/22 08:05:03;;;;;;;22.52;16.17;;;14.10;81.10;;;;;;5074361;28;20502;-78
2021/09/22 08:07:29;;;;;;;22.77;16.80;;;14.20;81.10;;;;;;5074687;28;20484;-78
2021/09/22 08:09:54;;;;;;;20.73;15.65;;;14.20;80.90;;;;;;5074648;28;20013;-75
2021/09/22 08:12:20;;;;;;;22.33;16.45;;;14.30;80.90;;;;;;5074287;28;20017;-75
2021/09/22 08:18:08;;;;;;;22.08;15.82;;;14.40;80.70;;;;;;5075930;28;20507;-75
2021/09/22 08:20:33;;;;;;;22.77;16.65;;;14.40;80.60;;;;;;5074142;28;20020;-75
2021/09/22 08:22:59;;;;;;;22.67;16.15;;;14.40;80.60;;;;;;5074057;28;20028;-75
2021/09/22 08:25:25;;;;;;;21.27;16.40;;;14.40;80.50;;;;;;5073797;28;20056;-74
2021/09/22 08:27:51;;;;;;;22.38;16.27;;;14.50;81.10;;;;;;5075420;28;20031;-73
2021/09/22 08:30:17;;;;;;;22.23;16.02;;;14.50;80.50;;;;;;5075462;28;20456;-73
2021/09/22 08:32:43;;;;;;;19.38;15.27;;;14.60;80.40;;;;;;5073859;28;20032;-74
2021/09/22 08:35:10;;;;;;;20.05;14.52;;;14.60;80.30;;;;;;5073964;28;20016;-73
2021/09/22 08:37:37;;;;;;;20.25;14.77;;;14.70;80.20;;;;;;5073695;28;20039;-76
2021/09/22 08:40:05;;;;;;;19.95;14.05;;;14.80;80.00;;;;;;5073830;28;20498;-75
2021/09/22 08:42:31;;;;;;;20.17;15.05;;;14.90;79.80;;;;;;5073990;28;20025;-74
2021/09/22 08:44:58;;;;;;;20.25;14.70;;;15.00;79.70;;;;;;5073820;28;20032;-75
2021/09/22 08:47:23;;;;;;;19.52;14.65;;;15.00;79.40;;;;;;5073537;28;20054;-74
2021/09/22 08:49:50;;;;;;;19.33;14.68;;;15.10;79.30;;;;;;5073603;28;20023;-74
2021/09/22 08:52:16;;;;;;;21.48;15.07;;;15.10;79.10;;;;;;5073432;28;20069;-73
2021/09/22 08:54:42;;;;;;;17.33;13.82;;;15.10;79.00;;;;;;5073785;28;20107;-74
2021/09/22 08:57:08;;;;;;;19.08;14.07;;;15.10;79.00;;;;;;5073727;28;20012;-74
2021/09/22 08:59:34;;;;;;;21.17;14.65;;;15.20;79.00;;;;;;5073431;28;20021;-73
2021/09/22 09:02:19;;;;;;;21.85;14.68;;;15.20;78.90;;;;;;5073339;28;20020;-75
2021/09/22 09:05:00;;;;;;;19.90;14.75;;;15.20;78.80;;;;;;5073243;28;20027;-73
2021/09/22 09:07:29;;;;;;;23.13;15.43;;;15.20;78.70;;;;;;5072129;28;20052;-77
2021/09/22 09:10:06;;;;;;;19.80;13.93;;;15.30;78.70;;;;;;5073279;28;20391;-76
2021/09/22 09:12:31;;;;;;;18.67;14.00;;;15.30;78.60;;;;;;5070982;28;20028;-74
2021/09/22 09:15:03;;;;;;;16.10;12.60;;;15.40;78.50;;;;;;5073004;28;20565;-74
2021/09/22 09:17:50;;;;;;;18.48;14.43;;;15.40;78.40;;;;;;5073256;28;20039;-75
2021/09/22 09:20:24;;;;;;;16.88;13.23;;;15.50;78.20;;;;;;5072940;28;20032;-75
2021/09/22 09:23:00;;;;;;;15.13;12.35;;;15.60;78.00;;;;;;5074172;28;20036;-76
2021/09/22 09:25:28;;;;;;;16.98;11.77;;;15.60;77.90;;;;;;5073044;28;20106;-75
2021/09/22 09:27:54;;;;;;;17.13;12.15;;;15.70;77.70;;;;;;5072761;28;20480;-75
2021/09/22 09:30:23;;;;;;;14.82;11.50;;;15.70;77.60;;;;;;5056134;28;20553;-75
2021/09/22 09:32:50;;;;;;;14.95;11.20;;;15.80;77.40;;;;;;5072703;28;20106;-76
2021/09/22 09:35:22;;;;;;;13.63;10.90;;;15.80;77.20;;;;;;5072609;28;20021;-75
2021/09/22 09:37:52;;;;;;;12.88;10.02;;;15.90;76.90;;;;;;5069923;28;20029;-75
2021/09/22 09:40:24;;;;;;;14.98;11.32;;;16.00;76.60;;;;;;5072683;28;20070;-75
2021/09/22 09:42:56;;;;;;;13.32;9.98;;;16.10;76.00;;;;;;5072577;28;20037;-75
2021/09/22 09:45:24;;;;;;;11.73;9.82;;;16.10;75.80;;;;;;5072590;28;20028;-76
2021/09/22 09:47:59;;;;;;;18.95;11.45;;;16.20;75.60;;;;;;5072348;28;20047;-75
2021/09/22 09:50:24;;;;;;;14.57;10.55;;;16.30;75.00;;;;;;5072318;28;20028;-76
2021/09/22 09:52:56;;;;;;;14.40;10.25;;;16.40;74.80;;;;;;5072362;28;20021;-76
2021/09/22 09:55:24;;;;;;;15.27;9.80;;;16.50;74.70;;;;;;5072190;28;20024;-76
2021/09/22 09:57:53;;;;;;;14.60;9.90;;;16.50;74.50;;;;;;5072035;28;20388;-75
2021/09/22 10:00:48;;;;;;;10.43;8.98;;;16.60;74.20;;;;;;5072224;28;20025;-75
2021/09/22 10:03:20;;;;;;;10.98;8.38;;;16.70;74.10;;;;;;5072558;28;20508;-76
2021/09/22 10:05:50;;;;;;;11.73;8.90;;;16.80;73.90;;;;;;5073634;28;20532;-75
2021/09/22 10:08:20;;;;;;;11.77;8.70;;;16.80;73.80;;;;;;5072031;28;20511;-74
2021/09/22 10:10:47;;;;;;;14.18;9.68;;;16.80;73.60;;;;;;5072011;28;20021;-74
2021/09/22 10:13:15;;;;;;;16.50;9.55;;;16.90;73.50;;;;;;5071928;28;20021;-75
2021/09/22 10:15:42;;;;;;;11.40;8.63;;;17.00;72.80;;;;;;5073040;28;20444;-75
2021/09/22 10:18:10;;;;;;;9.48;7.97;;;17.00;72.80;;;;;;5071634;28;20158;-74
2021/09/22 10:20:43;;;;;;;12.38;8.98;;;17.00;72.70;;;;;;5071832;28;20025;-74
2021/09/22 10:23:11;;;;;;;14.68;9.38;;;17.10;72.50;;;;;;5071875;28;20062;-75
2021/09/22 10:25:39;;;;;;;12.50;7.90;;;17.10;72.20;;;;;;5072275;28;20044;-79
2021/09/22 10:28:05;;;;;;;13.43;8.43;;;17.20;72.10;;;;;;5072149;28;20028;-77
2021/09/22 10:30:40;;;;;;;12.55;8.50;;;17.20;72.00;;;;;;5071822;28;20111;-77
2021/09/22 10:33:23;;;;;;;11.45;8.75;;;17.30;71.70;;;;;;5054843;28;20028;-76
2021/09/22 10:35:55;;;;;;;12.15;8.35;;;17.30;71.60;;;;;;5071711;28;20120;-76
2021/09/22 10:41:44;;;;;;;12.70;10.05;;;17.40;71.30;;;;;;5073339;28;20203;-76
2021/09/22 10:47:32;;;;;;;12.18;8.57;;;17.50;70.90;;;;;;5072822;28;20051;-76
2021/09/22 10:49:58;;;;;;;12.88;9.50;;;17.60;71.00;;;;;;5071422;28;20024;-76
2021/09/22 10:52:34;;;;;;;12.95;10.13;;;17.60;70.70;;;;;;5071570;28;20031;-76
2021/09/22 10:55:15;;;;;;;13.07;9.55;;;17.70;70.40;;;;;;5071605;28;20036;-75
2021/09/22 10:57:48;;;;;;;13.15;9.48;;;17.70;70.40;;;;;;5071508;28;20115;-75
2021/09/22 11:00:18;;;;;;;13.07;8.82;;;17.80;70.40;;;;;;5071468;28;20056;-75
2021/09/22 11:02:48;;;;;;;11.27;8.32;;;17.80;70.40;;;;;;5071246;28;20091;-75
2021/09/22 11:05:35;;;;;;;13.45;9.98;;;17.90;70.30;;;;;;5071180;28;20119;-75
2021/09/22 11:08:08;;;;;;;11.10;8.73;;;18.00;69.80;;;;;;5070847;28;20040;-75
2021/09/22 11:10:34;;;;;;;;;;;18.10;69.80;;;;;;5071303;28;20435;-77
2021/09/22 11:13:28;;;;;;;12.02;9.43;;;18.00;69.50;;;;;;5071199;28;19919;-76
2021/09/22 11:16:06;;;;;;;11.63;9.25;;;18.10;69.40;;;;;;5071325;28;20024;-75
2021/09/22 11:18:32;;;;;;;13.00;9.43;;;18.20;69.20;;;;;;5071076;28;20037;-77
2021/09/22 11:21:01;;;;;;;12.43;8.05;;;18.20;68.90;;;;;;5071169;28;20119;-74
2021/09/22 11:23:28;;;;;;;9.93;7.78;;;18.30;69.40;;;;;;5071339;28;20024;-73
2021/09/22 11:26:06;;;;;;;12.05;8.07;;;18.30;68.60;;;;;;5070757;28;20492;-78
2021/09/22 11:28:31;;;;;;;13.27;9.30;;;18.50;68.40;;;;;;5071144;28;20035;-77
2021/09/22 11:30:57;;;;;;;10.38;7.57;;;18.50;68.00;;;;;;5073540;28;20116;-77
2021/09/22 11:33:25;;;;;;;9.85;7.60;;;18.60;67.80;;;;;;5074987;28;20036;-77
2021/09/22 11:35:52;;;;;;;10.63;7.50;;;18.60;67.70;;;;;;5075170;28;20388;-77
2021/09/22 11:38:18;;;;;;;10.20;7.60;;;18.70;67.70;;;;;;5075131;28;20028;-76
2021/09/22 11:40:45;;;;;;;10.77;8.02;;;18.70;67.60;;;;;;5074943;28;20029;-77
2021/09/22 11:43:18;;;;;;;12.10;8.38;;;18.80;67.60;;;;;;5072306;28;20098;-80
2021/09/22 11:46:00;;;;;;;10.45;7.95;;;18.90;67.20;;;;;;5074757;28;20078;-77
2021/09/22 11:49:02;;;;;;;12.20;8.48;;;18.90;66.50;;;;;;5074607;28;20028;-77
2021/09/22 11:54:56;;;;;;;9.88;7.53;;;18.90;66.00;;;;;;5076356;28;20031;-77
2021/09/22 11:57:28;;;;;;;9.43;6.95;;;19.00;66.00;;;;;;5095810;28;20051;-78
2021/09/22 12:03:19;;;;;;;9.05;7.15;;;19.10;66.00;;;;;;5073393;28;20032;-74
2021/09/22 12:05:45;;;;;;;6.60;5.35;;;19.20;65.90;;;;;;5056829;28;20025;-75
2021/09/22 12:08:12;;;;;;;9.45;6.93;;;19.20;65.90;;;;;;5056666;28;20035;-75
2021/09/22 12:10:42;;;;;;;14.13;6.90;;;19.20;65.60;;;;;;5056770;28;20574;-76
2021/09/22 12:13:08;;;;;;;10.63;7.00;;;19.30;65.20;;;;;;5056758;28;20021;-75
2021/09/22 12:15:35;;;;;;;7.78;6.22;;;19.30;65.10;;;;;;5056582;28;20110;-76
2021/09/22 12:18:01;;;;;;;7.43;5.57;;;19.30;65.10;;;;;;5056741;28;20516;-75
2021/09/22 12:20:30;;;;;;;10.85;6.80;;;19.40;65.10;;;;;;5073364;28;20079;-74
2021/09/22 12:23:07;;;;;;;7.07;5.82;;;19.50;64.70;;;;;;5056542;28;20028;-74
2021/09/22 12:25:34;;;;;;;7.95;5.72;;;19.50;64.70;;;;;;5056291;28;20044;-75
2021/09/22 12:28:02;;;;;;;8.75;5.78;;;19.50;64.60;;;;;;5056222;28;20032;-74
2021/09/22 12:30:37;;;;;;;12.50;7.25;;;19.60;64.50;;;;;;5089011;28;20032;-75
2021/09/22 12:33:05;;;;;;;8.63;6.82;;;19.70;64.00;;;;;;5097466;28;20046;-75
2021/09/22 12:35:33;;;;;;;12.85;7.28;;;19.70;63.70;;;;;;5097482;28;20111;-74
2021/09/22 12:41:22;;;;;;;6.70;5.40;;;19.80;63.60;;;;;;5115831;28;20432;-73
2021/09/22 12:43:58;;;;;;;9.52;6.50;;;19.90;63.60;;;;;;5097353;28;20036;-74
2021/09/22 12:46:37;;;;;;;8.07;6.13;;;20.00;62.80;;;;;;5097222;28;20610;-74
2021/09/22 12:49:43;;;;;;;8.38;6.00;;;20.00;62.80;;;;;;5097061;28;20027;-74
2021/09/22 12:52:21;;;;;;;8.38;5.13;;;20.10;62.60;;;;;;5097134;28;20080;-75
2021/09/22 12:58:11;;;;;;;7.22;4.97;;;20.20;62.60;;;;;;5115521;28;20108;-75
2021/09/22 13:00:52;;;;;;;7.60;5.28;;;20.30;62.50;;;;;;5097404;28;20030;-74
2021/09/22 13:03:24;;;;;;;6.50;5.20;;;20.30;62.10;;;;;;5096610;28;20035;-75
2021/09/22 13:05:53;;;;;;;6.97;4.40;;;20.30;62.00;;;;;;5115502;28;20502;-74